createdAt,value
2024-03-23T00:00:06.871Z,48.5
2024-03-23T00:05:14.939Z,47.5
2024-03-23T00:10:21.569Z,47
2024-03-23T00:15:28.900Z,45
2024-03-23T00:25:43.616Z,48
2024-03-23T00:30:50.977Z,48.5
2024-03-23T00:35:58.348Z,50
2024-03-23T00:41:05.692Z,51
2024-03-23T00:46:13.056Z,49.5
2024-03-23T00:51:20.441Z,46.5
2024-03-23T00:56:27.761Z,48
2024-03-23T01:01:35.126Z,49.5
2024-03-23T01:06:42.477Z,49
2024-03-23T01:11:49.847Z,50.5
2024-03-23T01:16:57.180Z,49
2024-03-23T01:22:04.544Z,51.5
2024-03-23T01:27:11.898Z,48
2024-03-23T01:32:19.254Z,45
2024-03-23T01:37:26.603Z,42.5
2024-03-23T01:47:41.323Z,50
2024-03-23T01:52:48.687Z,49.5
2024-03-23T01:57:56.052Z,44.5
2024-03-23T02:03:03.411Z,49.5
2024-03-23T02:08:10.744Z,49.5
2024-03-23T02:13:18.100Z,47
2024-03-23T02:18:25.480Z,47.5
2024-03-23T02:23:32.832Z,51.5
2024-03-23T02:28:40.175Z,46
2024-03-23T02:33:47.536Z,47
2024-03-23T02:38:54.897Z,45
2024-03-23T02:44:02.244Z,48
2024-03-23T02:49:09.604Z,51.5
2024-03-23T02:54:16.953Z,49.5
2024-03-23T02:59:24.327Z,48
2024-03-23T03:04:31.672Z,41.5
2024-03-23T03:09:39.032Z,44
2024-03-23T03:14:46.389Z,41
2024-03-23T03:19:53.748Z,48.5
2024-03-23T03:25:01.097Z,48.5
2024-03-23T03:30:08.467Z,49
2024-03-23T03:35:15.814Z,49
2024-03-23T03:40:23.184Z,47
2024-03-23T03:45:30.557Z,44.5
2024-03-23T03:50:37.897Z,42
2024-03-23T03:55:45.262Z,51
2024-03-23T04:00:52.617Z,48
2024-03-23T04:05:59.963Z,42.5
2024-03-23T04:11:07.315Z,43
2024-03-23T04:16:14.662Z,47
2024-03-23T04:21:22.017Z,49.5
2024-03-23T04:26:29.377Z,44.5
2024-03-23T04:31:36.732Z,49.5
2024-03-23T04:36:44.089Z,45
2024-03-23T04:41:51.450Z,49
2024-03-23T04:46:58.800Z,49
2024-03-23T04:52:06.154Z,51.5
2024-03-23T04:57:13.525Z,53.5
2024-03-23T05:02:20.869Z,52.5
2024-03-23T05:07:28.225Z,51.5
2024-03-23T05:12:37.521Z,53.5
2024-03-23T05:17:42.941Z,60
2024-03-23T05:22:50.294Z,61.5
2024-03-23T05:27:57.665Z,64.5
2024-03-23T05:33:05.017Z,62.5
2024-03-23T05:38:12.372Z,63.5
2024-03-23T05:43:19.727Z,61.5
2024-03-23T05:48:27.124Z,59.5
2024-03-23T05:53:34.435Z,71.5
2024-03-23T05:58:41.817Z,77
2024-03-23T06:03:49.158Z,79
2024-03-23T06:08:56.506Z,82
2024-03-23T06:14:03.859Z,82.5
2024-03-23T06:19:11.217Z,83.5
2024-03-23T06:24:18.579Z,84
2024-03-23T06:29:25.943Z,85
2024-03-23T06:36:45.009Z,85.5
2024-03-23T06:41:52.366Z,81
2024-03-23T06:46:59.728Z,85.5
2024-03-23T06:52:07.082Z,88.5
2024-03-23T06:57:14.427Z,87.5
2024-03-23T07:02:21.813Z,86
2024-03-23T07:07:29.155Z,81.5
2024-03-23T07:12:36.552Z,85
2024-03-23T07:17:43.859Z,86
2024-03-23T07:22:51.229Z,86.5
2024-03-23T07:28:00.494Z,90.5
2024-03-23T07:33:05.943Z,91.5
2024-03-23T07:38:13.316Z,91.5
2024-03-23T07:43:20.652Z,90
2024-03-23T07:48:28.001Z,77
2024-03-23T07:53:35.366Z,77.5
2024-03-23T07:58:42.737Z,75.5
2024-03-23T08:03:50.090Z,64
2024-03-23T08:08:57.481Z,79
2024-03-23T08:14:04.794Z,85
2024-03-23T08:19:12.144Z,91.5
2024-03-23T08:24:19.502Z,85.5
2024-03-23T08:29:26.846Z,85
2024-03-23T08:34:34.210Z,83.5
2024-03-23T08:39:41.584Z,87.5
2024-03-23T08:44:48.942Z,89.5
2024-03-23T08:49:56.288Z,92
2024-03-23T08:55:03.640Z,89
2024-03-23T09:00:11.000Z,92.5
2024-03-23T09:05:18.377Z,89
2024-03-23T09:10:25.723Z,91
2024-03-23T09:15:33.079Z,91
2024-03-23T09:20:40.442Z,90
2024-03-23T09:25:47.774Z,86
2024-03-23T09:30:55.149Z,84.5
2024-03-23T09:36:02.498Z,78.5
2024-03-23T09:41:09.843Z,84
2024-03-23T09:46:17.210Z,80
2024-03-23T09:51:24.557Z,83.5
2024-03-23T09:56:31.918Z,80.5
2024-03-23T10:01:39.268Z,81
2024-03-23T10:06:46.643Z,73
2024-03-23T10:11:53.978Z,70.5
2024-03-23T10:17:01.333Z,75
2024-03-23T10:22:08.689Z,76
2024-03-23T10:27:16.056Z,81
2024-03-23T10:32:23.408Z,85.5
2024-03-23T10:37:30.782Z,85.5
2024-03-23T10:42:38.127Z,89.5
2024-03-23T10:47:45.476Z,91
2024-03-23T10:52:52.835Z,86.5
2024-03-23T10:58:00.197Z,90.5
2024-03-23T11:03:07.560Z,87
2024-03-23T11:08:14.927Z,90.5
2024-03-23T11:13:22.262Z,90
2024-03-23T11:18:29.650Z,86
2024-03-23T11:23:36.978Z,87
2024-03-23T11:28:44.340Z,77
2024-03-23T11:33:51.697Z,77
2024-03-23T11:38:59.054Z,78
2024-03-23T11:44:06.420Z,73
2024-03-23T11:49:13.762Z,67.5
2024-03-23T11:54:21.119Z,69.5
2024-03-23T11:59:28.481Z,69.5
2024-03-23T12:04:35.826Z,72
2024-03-23T12:09:43.215Z,74
2024-03-23T12:14:50.544Z,60
2024-03-23T12:19:57.907Z,70.5
2024-03-23T12:25:05.266Z,71.5
2024-03-23T12:30:12.629Z,66.5
2024-03-23T12:35:19.969Z,68
2024-03-23T12:40:27.337Z,58
2024-03-23T12:45:34.728Z,68.5
2024-03-23T12:50:42.034Z,59.5
2024-03-23T12:55:49.411Z,52.5
2024-03-23T13:00:56.749Z,58.5
2024-03-23T13:06:04.112Z,51
2024-03-23T13:11:11.492Z,55.5
2024-03-23T13:16:18.822Z,55.5
2024-03-23T13:21:26.174Z,57
2024-03-23T13:26:33.546Z,56
2024-03-23T13:31:40.875Z,59
2024-03-23T13:36:48.271Z,56
2024-03-23T13:41:55.602Z,52
2024-03-23T13:47:02.959Z,53.5
2024-03-23T13:52:10.312Z,49.5
2024-03-23T13:57:17.665Z,50.5
2024-03-23T14:02:25.022Z,55
2024-03-23T14:07:32.381Z,49.5
2024-03-23T14:12:39.766Z,53.5
2024-03-23T14:17:48.624Z,54
2024-03-23T14:22:54.449Z,48.5
2024-03-23T14:28:01.831Z,47
2024-03-23T14:33:09.164Z,47.5
2024-03-23T14:38:16.558Z,45
2024-03-23T14:43:23.885Z,51.5
2024-03-23T14:48:31.242Z,45.5
2024-03-23T14:53:38.604Z,48
2024-03-23T14:58:45.960Z,50.5
2024-03-23T15:03:53.345Z,50.5
2024-03-23T15:09:00.671Z,49.5
2024-03-23T15:14:08.133Z,52
2024-03-23T15:19:15.388Z,52.5
2024-03-23T15:24:22.740Z,52
2024-03-23T15:29:30.080Z,50.5
2024-03-23T15:34:37.440Z,55
2024-03-23T15:39:44.869Z,52
2024-03-23T15:44:52.176Z,52.5
2024-03-23T15:49:59.525Z,48.5
2024-03-23T15:55:06.886Z,46.5
2024-03-23T16:00:14.225Z,54
2024-03-23T16:05:21.591Z,51
2024-03-23T16:10:28.928Z,53.5
2024-03-23T16:15:36.322Z,48.5
2024-03-23T16:20:43.659Z,53.5
2024-03-23T16:25:51.005Z,53.5
2024-03-23T16:30:58.366Z,51
2024-03-23T16:36:05.711Z,54
2024-03-23T16:41:13.092Z,56.5
2024-03-23T16:46:20.452Z,59.5
2024-03-23T16:51:27.790Z,55
2024-03-23T16:56:35.170Z,55
2024-03-23T17:01:42.501Z,56.5
2024-03-23T17:06:49.869Z,60.5
2024-03-23T17:11:57.218Z,60
2024-03-23T17:17:04.586Z,60.5
2024-03-23T17:22:11.931Z,61
2024-03-23T17:27:19.288Z,59.5
2024-03-23T17:32:26.658Z,57
2024-03-23T17:37:33.993Z,62
2024-03-23T17:42:41.369Z,62
2024-03-23T17:47:48.719Z,61.5
2024-03-23T17:52:56.092Z,64.5
2024-03-23T17:58:03.421Z,58.5
2024-03-23T18:03:10.787Z,61.5
2024-03-23T18:08:18.141Z,65
2024-03-23T18:13:25.493Z,65
2024-03-23T18:18:32.864Z,64.5
2024-03-23T18:23:40.215Z,70
2024-03-23T18:28:47.569Z,73.5
2024-03-23T18:33:54.928Z,77
2024-03-23T18:39:02.280Z,79
2024-03-23T18:49:17.008Z,80.5
2024-03-23T18:54:24.348Z,79.5
2024-03-23T18:59:31.716Z,79.5
2024-03-23T19:04:39.070Z,76.5
2024-03-23T19:09:46.402Z,73
2024-03-23T19:14:53.776Z,78
2024-03-23T19:20:01.133Z,71.5
2024-03-23T19:25:08.484Z,71.5
2024-03-23T19:30:15.842Z,69.5
2024-03-23T19:35:23.198Z,70
2024-03-23T19:40:30.550Z,73.5
2024-03-23T19:45:37.917Z,77.5
2024-03-23T19:50:45.268Z,78.5
2024-03-23T19:55:52.624Z,78
2024-03-23T20:01:00.016Z,79
2024-03-23T20:06:07.329Z,76.5
2024-03-23T20:11:14.706Z,73
2024-03-23T20:16:22.039Z,78.5
2024-03-23T20:21:29.424Z,74
2024-03-23T20:26:36.764Z,76
2024-03-23T20:31:44.114Z,73.5
2024-03-23T20:36:51.463Z,78.5
2024-03-23T20:41:58.869Z,77.5
2024-03-23T20:52:13.542Z,81
2024-03-23T20:57:20.896Z,83
2024-03-23T21:02:28.245Z,84
2024-03-23T21:07:35.599Z,85.5
2024-03-23T21:12:42.972Z,88.5
2024-03-23T21:17:50.322Z,89
2024-03-23T21:22:57.692Z,89.5
2024-03-23T21:28:05.043Z,91.5
2024-03-23T21:33:12.389Z,93
2024-03-23T21:38:19.754Z,91.5
2024-03-23T21:43:27.112Z,89
2024-03-23T21:48:34.467Z,89
2024-03-23T21:53:41.816Z,92.5
2024-03-23T21:58:49.178Z,92.5
2024-03-23T22:03:56.527Z,92.5
2024-03-23T22:09:03.887Z,93
2024-03-23T22:14:11.240Z,92
2024-03-23T22:19:18.595Z,93.5
2024-03-23T22:24:25.966Z,88.5
2024-03-23T22:29:33.306Z,86.5
2024-03-23T22:34:40.662Z,83.5
2024-03-23T22:39:48.035Z,82.5
2024-03-23T22:44:55.424Z,83
2024-03-23T22:50:02.728Z,82.5
2024-03-23T22:55:10.092Z,84.5
2024-03-23T23:00:17.449Z,81
2024-03-23T23:05:24.800Z,80.5
2024-03-23T23:10:32.157Z,81.5
2024-03-23T23:15:39.508Z,82.5
2024-03-23T23:20:46.863Z,83
2024-03-23T23:25:54.219Z,80
2024-03-23T23:31:01.586Z,82
2024-03-23T23:36:08.942Z,82.5
2024-03-23T23:43:28.010Z,81.5
2024-03-23T23:48:35.360Z,82.5
2024-03-23T23:53:42.722Z,88
2024-03-23T23:58:50.124Z,90.5
